Terminal Aerodrome Forecast
Issued by NWS

Home | Current Version | Previous Version | Text Only | Print | Product List | Glossary On
Versions: 1 2 3 4 5 6 7 8 9 10 11 12 13 14 15 16
000
FTUS45 KRIW 252327
TAFCPR
TAF
KCPR 252327Z 2600/2624 24020G30KT P6SM SCT100 BKN150
     FM260100 22013G19KT P6SM SCT090 WS005/25030KT
     FM261700 24020G30KT P6SM SCT200=

USA.gov is the U.S. government's official web portal to all federal, state and local government web resources and services.